Terminal Aerodrome Forecast
Issued by NWS Cleveland, OH

Home | Current Version | Previous Version | Graphics & Text | Print | Product List | Glossary On
Versions: 1 2 3 4 5 6 7 8 9 10 11 12 13 14 15 16 17 18 19 20 21 22 23 24 25 26 27 28
663
FTUS41 KCLE 221720
TAFCLE
TAF
KCLE 221720Z 2218/2324 20009KT P6SM BKN018 OVC035
     FM222100 20008KT P6SM OVC045
     FM230500 20009KT P6SM OVC015
     FM231000 20010KT 5SM BR OVC009
     FM231700 25008KT P6SM OVC050=

USA.gov is the U.S. government's official web portal to all federal, state and local government web resources and services.